Observations for PALERMO POINT RAISI, Italy (LICJ)

LICJ 141020Z 17006KT 110V260 9999 FEW020 BKN075 18/10 Q1007 
LICJ 140950Z 16009G21KT 130V190 9999 FEW030 BKN050 18/10 Q1007  
LICJ 140920Z 18006KT 150V250 9999 FEW030 18/10 Q1007
LICJ 140850Z 20008KT 170V230 9999 FEW030 18/10 Q1007
LICJ 140820Z 18006KT 150V210 9999 FEW020 SCT060 17/09 Q1007 
LICJ 140750Z 19010KT 150V220 9999 FEW020 SCT060 17/09 Q1007 
LICJ 140720Z 18010KT 9999 FEW020 BKN060 17/08 Q1007 
LICJ 140650Z 18010KT 9999 SCT005 17/09 Q1007
LICJ 140620Z 19009KT 9999 SCT050 17/09 Q1006
LICJ 140550Z 19012KT 9999 SCT040 SCT075 17/09 Q1006 
LICJ 140520Z 19014KT 9999 SCT070 17/09 Q1006
LICJ 140450Z 18011KT 9999 SCT070 17/08 Q1006
LICJ 140420Z 19014KT CAVOK 17/09 Q1006  
LICJ 140350Z 19015KT CAVOK 17/09 Q1006  
LICJ 140320Z 20013KT CAVOK 17/09 Q1006  
LICJ 140250Z 19014G25KT CAVOK 17/09 Q1006   
LICJ 140220Z 19015KT CAVOK 17/09 Q1006  
LICJ 140150Z 19015KT CAVOK 17/10 Q1006  
LICJ 140120Z 20017KT CAVOK 17/10 Q1006  
LICJ 140050Z 19017KT 150V210 9999 SCT070 17/10 Q1007
LICJ 140020Z 20019G31KT 9999 FEW070 17/10 Q1007 
LICJ 132350Z 19014KT 9999 SCT030 17/10 Q1007
LICJ 132320Z 19014KT 9999 -RA SCT070 17/10 Q1008
LICJ 132250Z 20018KT 170V230 9999 SCT070 17/10 Q1008
LICJ 132220Z 20014KT 9999 SCT070 17/10 Q1008
LICJ 132150Z 19015KT 9999 SCT070 17/09 Q1008
LICJ 132120Z 20014KT 9999 SCT070 17/10 Q1008
LICJ 132050Z 19014KT 9999 BKN070 16/11 Q1009
LICJ 132020Z 19010KT 9999 BKN070 16/11 Q1009
LICJ 131950Z 19008KT 9999 SCT040 BKN065 16/11 Q1009 
LICJ 131920Z 20010KT 9999 SCT030 BKN060 16/11 Q1009 
LICJ 131850Z 19011KT 9999 -SHRA SCT025 BKN060 16/11 Q1009 RESHRA
LICJ 131820Z 20013KT 9000 SHRA SCT025 BKN060 16/11 Q1009
LICJ 131750Z 20008KT 9999 SCT030 BKN060 16/10 Q1009 
LICJ 131720Z 20008KT 9999 SCT030 BKN060 17/10 Q1008 
LICJ 131650Z 24013KT 9999 SCT030 BKN070 18/11 Q1008 
LICJ 131620Z 24011KT 9999 FEW020 SCT045 18/12 Q1008 
LICJ 131550Z 26012KT 9999 SCT040 18/11 Q1008
LICJ 131520Z 25016KT 9999 SCT040 18/10 Q1007
LICJ 131450Z 26014KT 9999 FEW025 SCT065 18/10 Q1007 
LICJ 131420Z 25014KT 9999 SCT030 18/11 Q1007
LICJ 131350Z 26015KT 9999 FEW030 18/09 Q1007
LICJ 131320Z 25018KT 9999 FEW025 18/11 Q1007
LICJ 131250Z 26019KT 9999 FEW025 18/10 Q1007
LICJ 131220Z 26020KT 9999 SCT025 18/11 Q1007
LICJ 131150Z 27019KT 9999 SCT028 18/12 Q1007
LICJ 131120Z 27020KT 9999 SCT028 18/10 Q1007
LICJ 131050Z 26021KT 9999 SCT025 18/11 Q1006
LICJ 131020Z 26022KT 9999 SCT025 18/11 Q1006
LICJ 130950Z 28022KT 9999 SCT030 18/10 Q1006